sensor_id;sensor_type;location;lat;lon;timestamp;temperature;humidity
23156;DHT22;11746;50.876;4.246;2022-08-21T00:00:49;18.30;99.90
23156;DHT22;11746;50.876;4.246;2022-08-21T00:03:15;18.30;99.90
23156;DHT22;11746;50.876;4.246;2022-08-21T00:05:48;18.20;99.90
23156;DHT22;11746;50.876;4.246;2022-08-21T00:08:16;18.10;99.90
23156;DHT22;11746;50.876;4.246;2022-08-21T00:10:45;18.00;99.90
23156;DHT22;11746;50.876;4.246;2022-08-21T00:13:13;17.80;99.90
23156;DHT22;11746;50.876;4.246;2022-08-21T00:15:42;17.80;99.90
23156;DHT22;11746;50.876;4.246;2022-08-21T00:18:10;17.70;99.90
23156;DHT22;11746;50.876;4.246;2022-08-21T00:20:42;17.70;99.90
23156;DHT22;11746;50.876;4.246;2022-08-21T00:23:11;17.70;99.90
23156;DHT22;11746;50.876;4.246;2022-08-21T00:25:37;17.80;99.90
23156;DHT22;11746;50.876;4.246;2022-08-21T00:28:05;17.90;99.90
23156;DHT22;11746;50.876;4.246;2022-08-21T00:30:33;18.00;99.90
23156;DHT22;11746;50.876;4.246;2022-08-21T00:33:02;18.00;99.90
23156;DHT22;11746;50.876;4.246;2022-08-21T00:35:31;18.00;99.90
23156;DHT22;11746;50.876;4.246;2022-08-21T00:38:00;18.10;99.90
23156;DHT22;11746;50.876;4.246;2022-08-21T00:40:34;18.10;99.90
23156;DHT22;11746;50.876;4.246;2022-08-21T00:43:03;18.10;99.90
23156;DHT22;11746;50.876;4.246;2022-08-21T00:45:31;18.00;99.90
23156;DHT22;11746;50.876;4.246;2022-08-21T00:47:57;18.00;99.90
23156;DHT22;11746;50.876;4.246;2022-08-21T00:50:27;17.80;99.90
23156;DHT22;11746;50.876;4.246;2022-08-21T00:52:54;17.80;99.90
23156;DHT22;11746;50.876;4.246;2022-08-21T00:55:25;17.80;99.90
23156;DHT22;11746;50.876;4.246;2022-08-21T00:57:55;17.80;99.90
23156;DHT22;11746;50.876;4.246;2022-08-21T01:00:28;17.70;99.90
23156;DHT22;11746;50.876;4.246;2022-08-21T01:02:57;17.70;99.90
23156;DHT22;11746;50.876;4.246;2022-08-21T01:05:24;17.60;99.90
23156;DHT22;11746;50.876;4.246;2022-08-21T01:07:52;17.60;99.90
23156;DHT22;11746;50.876;4.246;2022-08-21T01:10:22;17.60;99.90
23156;DHT22;11746;50.876;4.246;2022-08-21T01:12:51;17.60;99.90
23156;DHT22;11746;50.876;4.246;2022-08-21T01:15:17;17.50;99.90
23156;DHT22;11746;50.876;4.246;2022-08-21T01:17:44;17.50;99.90
23156;DHT22;11746;50.876;4.246;2022-08-21T01:20:11;17.40;99.90
23156;DHT22;11746;50.876;4.246;2022-08-21T01:22:37;17.40;99.90
23156;DHT22;11746;50.876;4.246;2022-08-21T01:25:07;17.40;99.90
23156;DHT22;11746;50.876;4.246;2022-08-21T01:27:37;17.40;99.90
23156;DHT22;11746;50.876;4.246;2022-08-21T01:30:11;17.50;99.90
23156;DHT22;11746;50.876;4.246;2022-08-21T01:32:43;17.50;99.90
23156;DHT22;11746;50.876;4.246;2022-08-21T01:35:11;17.50;99.90
23156;DHT22;11746;50.876;4.246;2022-08-21T01:37:37;17.50;99.90
23156;DHT22;11746;50.876;4.246;2022-08-21T01:40:07;17.50;99.90
23156;DHT22;11746;50.876;4.246;2022-08-21T01:42:37;17.50;99.90
23156;DHT22;11746;50.876;4.246;2022-08-21T01:45:04;17.60;99.90
23156;DHT22;11746;50.876;4.246;2022-08-21T01:47:30;17.50;99.90
23156;DHT22;11746;50.876;4.246;2022-08-21T01:49:56;17.30;99.90
23156;DHT22;11746;50.876;4.246;2022-08-21T01:52:24;17.20;99.90
23156;DHT22;11746;50.876;4.246;2022-08-21T01:54:50;17.00;99.90
23156;DHT22;11746;50.876;4.246;2022-08-21T01:57:19;17.00;99.90
23156;DHT22;11746;50.876;4.246;2022-08-21T01:59:44;17.00;99.90
23156;DHT22;11746;50.876;4.246;2022-08-21T02:02:12;16.90;99.90
23156;DHT22;11746;50.876;4.246;2022-08-21T02:04:42;16.90;99.90
23156;DHT22;11746;50.876;4.246;2022-08-21T02:07:08;16.80;99.90
23156;DHT22;11746;50.876;4.246;2022-08-21T02:09:36;16.80;99.90
23156;DHT22;11746;50.876;4.246;2022-08-21T02:12:04;16.70;99.90
23156;DHT22;11746;50.876;4.246;2022-08-21T02:14:30;16.70;99.90
23156;DHT22;11746;50.876;4.246;2022-08-21T02:16:56;16.70;99.90
23156;DHT22;11746;50.876;4.246;2022-08-21T02:19:22;16.70;99.90
23156;DHT22;11746;50.876;4.246;2022-08-21T02:21:47;16.60;99.90
23156;DHT22;11746;50.876;4.246;2022-08-21T02:24:15;16.60;99.90
23156;DHT22;11746;50.876;4.246;2022-08-21T02:26:44;16.70;99.90
23156;DHT22;11746;50.876;4.246;2022-08-21T02:29:12;16.80;99.90
23156;DHT22;11746;50.876;4.246;2022-08-21T02:31:38;16.90;99.90
23156;DHT22;11746;50.876;4.246;2022-08-21T02:34:04;16.80;99.90
23156;DHT22;11746;50.876;4.246;2022-08-21T02:36:34;16.70;99.90
23156;DHT22;11746;50.876;4.246;2022-08-21T02:39:02;16.70;99.90
23156;DHT22;11746;50.876;4.246;2022-08-21T02:41:30;16.70;99.90
23156;DHT22;11746;50.876;4.246;2022-08-21T02:43:59;16.70;99.90
23156;DHT22;11746;50.876;4.246;2022-08-21T02:46:24;16.70;99.90
23156;DHT22;11746;50.876;4.246;2022-08-21T02:48:50;16.80;99.90
23156;DHT22;11746;50.876;4.246;2022-08-21T02:51:18;16.70;99.90
23156;DHT22;11746;50.876;4.246;2022-08-21T02:53:46;16.60;99.90
23156;DHT22;11746;50.876;4.246;2022-08-21T02:56:13;16.60;99.90
23156;DHT22;11746;50.876;4.246;2022-08-21T02:58:44;16.60;99.90
23156;DHT22;11746;50.876;4.246;2022-08-21T03:01:10;16.60;99.90
23156;DHT22;11746;50.876;4.246;2022-08-21T03:03:39;16.50;99.90
23156;DHT22;11746;50.876;4.246;2022-08-21T03:06:07;16.40;99.90
23156;DHT22;11746;50.876;4.246;2022-08-21T03:08:34;16.40;99.90
23156;DHT22;11746;50.876;4.246;2022-08-21T03:10:59;16.50;99.90
23156;DHT22;11746;50.876;4.246;2022-08-21T03:13:26;16.50;99.90
23156;DHT22;11746;50.876;4.246;2022-08-21T03:15:56;16.40;99.90
23156;DHT22;11746;50.876;4.246;2022-08-21T03:18:21;16.50;99.90
23156;DHT22;11746;50.876;4.246;2022-08-21T03:20:50;16.50;99.90
23156;DHT22;11746;50.876;4.246;2022-08-21T03:23:16;16.40;99.90
23156;DHT22;11746;50.876;4.246;2022-08-21T03:25:44;16.30;99.90
23156;DHT22;11746;50.876;4.246;2022-08-21T03:28:17;16.30;99.90
23156;DHT22;11746;50.876;4.246;2022-08-21T03:30:48;16.40;99.90
23156;DHT22;11746;50.876;4.246;2022-08-21T03:33:18;16.40;99.90
23156;DHT22;11746;50.876;4.246;2022-08-21T03:36:00;16.40;99.90
23156;DHT22;11746;50.876;4.246;2022-08-21T03:38:28;16.40;99.90
23156;DHT22;11746;50.876;4.246;2022-08-21T03:40:56;16.40;99.90
23156;DHT22;11746;50.876;4.246;2022-08-21T03:43:22;16.30;99.90
23156;DHT22;11746;50.876;4.246;2022-08-21T03:45:48;16.20;99.90
23156;DHT22;11746;50.876;4.246;2022-08-21T03:48:14;16.20;99.90
23156;DHT22;11746;50.876;4.246;2022-08-21T03:50:42;16.20;99.90
23156;DHT22;11746;50.876;4.246;2022-08-21T03:53:09;16.20;99.90
23156;DHT22;11746;50.876;4.246;2022-08-21T03:55:37;16.30;99.90
23156;DHT22;11746;50.876;4.246;2022-08-21T03:58:03;16.30;99.90
23156;DHT22;11746;50.876;4.246;2022-08-21T04:00:29;16.30;99.90
23156;DHT22;11746;50.876;4.246;2022-08-21T04:02:58;16.30;99.90
23156;DHT22;11746;50.876;4.246;2022-08-21T04:05:24;16.20;99.90
23156;DHT22;11746;50.876;4.246;2022-08-21T04:08:01;16.00;99.90
23156;DHT22;11746;50.876;4.246;2022-08-21T04:10:30;16.00;99.90
23156;DHT22;11746;50.876;4.246;2022-08-21T04:12:59;16.20;99.90
23156;DHT22;11746;50.876;4.246;2022-08-21T04:15:28;16.20;99.90
23156;DHT22;11746;50.876;4.246;2022-08-21T04:17:57;16.00;99.90
23156;DHT22;11746;50.876;4.246;2022-08-21T04:20:23;16.10;99.90
23156;DHT22;11746;50.876;4.246;2022-08-21T04:22:52;16.10;99.90
23156;DHT22;11746;50.876;4.246;2022-08-21T04:25:20;16.20;99.90
23156;DHT22;11746;50.876;4.246;2022-08-21T04:27:47;16.20;99.90
23156;DHT22;11746;50.876;4.246;2022-08-21T04:30:15;16.00;99.90
23156;DHT22;11746;50.876;4.246;2022-08-21T04:32:46;16.00;99.90
23156;DHT22;11746;50.876;4.246;2022-08-21T04:35:16;15.80;99.90
23156;DHT22;11746;50.876;4.246;2022-08-21T04:37:42;15.80;99.90
23156;DHT22;11746;50.876;4.246;2022-08-21T04:40:13;15.80;99.90
23156;DHT22;11746;50.876;4.246;2022-08-21T04:45:41;15.90;99.90
23156;DHT22;11746;50.876;4.246;2022-08-21T04:48:08;15.90;99.90
23156;DHT22;11746;50.876;4.246;2022-08-21T04:50:41;16.00;99.90
23156;DHT22;11746;50.876;4.246;2022-08-21T04:53:14;16.10;99.90
23156;DHT22;11746;50.876;4.246;2022-08-21T04:55:44;16.20;99.90
23156;DHT22;11746;50.876;4.246;2022-08-21T04:58:12;16.20;99.90
23156;DHT22;11746;50.876;4.246;2022-08-21T05:00:41;16.10;99.90
23156;DHT22;11746;50.876;4.246;2022-08-21T05:03:08;16.00;99.90
23156;DHT22;11746;50.876;4.246;2022-08-21T05:05:35;16.10;99.90
23156;DHT22;11746;50.876;4.246;2022-08-21T05:08:02;16.10;99.90
23156;DHT22;11746;50.876;4.246;2022-08-21T05:10:31;16.10;99.90
23156;DHT22;11746;50.876;4.246;2022-08-21T05:12:57;16.10;99.90
23156;DHT22;11746;50.876;4.246;2022-08-21T05:15:24;16.20;99.90
23156;DHT22;11746;50.876;4.246;2022-08-21T05:17:50;16.20;99.90
23156;DHT22;11746;50.876;4.246;2022-08-21T05:20:16;16.30;99.90
23156;DHT22;11746;50.876;4.246;2022-08-21T05:22:45;16.40;99.90
23156;DHT22;11746;50.876;4.246;2022-08-21T05:25:11;16.40;99.90
23156;DHT22;11746;50.876;4.246;2022-08-21T05:27:37;16.30;99.90
23156;DHT22;11746;50.876;4.246;2022-08-21T05:30:06;16.40;99.90
23156;DHT22;11746;50.876;4.246;2022-08-21T05:32:33;16.40;99.90
23156;DHT22;11746;50.876;4.246;2022-08-21T05:34:59;16.30;99.90
23156;DHT22;11746;50.876;4.246;2022-08-21T05:37:27;16.40;99.90
23156;DHT22;11746;50.876;4.246;2022-08-21T05:39:52;16.30;99.90
23156;DHT22;11746;50.876;4.246;2022-08-21T05:42:20;16.40;99.90
23156;DHT22;11746;50.876;4.246;2022-08-21T05:44:46;16.40;99.90
23156;DHT22;11746;50.876;4.246;2022-08-21T05:47:14;16.40;99.90
23156;DHT22;11746;50.876;4.246;2022-08-21T05:49:42;16.40;99.90
23156;DHT22;11746;50.876;4.246;2022-08-21T05:52:07;16.50;99.90
23156;DHT22;11746;50.876;4.246;2022-08-21T05:54:36;16.70;99.90
23156;DHT22;11746;50.876;4.246;2022-08-21T05:57:04;16.90;99.90
23156;DHT22;11746;50.876;4.246;2022-08-21T05:59:29;16.90;99.90
23156;DHT22;11746;50.876;4.246;2022-08-21T06:02:00;17.00;99.90
23156;DHT22;11746;50.876;4.246;2022-08-21T06:04:26;17.20;99.90
23156;DHT22;11746;50.876;4.246;2022-08-21T06:06:54;17.20;99.90
23156;DHT22;11746;50.876;4.246;2022-08-21T06:09:20;17.40;99.90
23156;DHT22;11746;50.876;4.246;2022-08-21T06:11:46;17.50;99.90
23156;DHT22;11746;50.876;4.246;2022-08-21T06:14:15;17.50;99.90
23156;DHT22;11746;50.876;4.246;2022-08-21T06:16:41;17.50;99.90
23156;DHT22;11746;50.876;4.246;2022-08-21T06:19:07;17.30;99.90
23156;DHT22;11746;50.876;4.246;2022-08-21T06:21:35;17.20;99.90
23156;DHT22;11746;50.876;4.246;2022-08-21T06:24:06;17.20;99.90
23156;DHT22;11746;50.876;4.246;2022-08-21T06:26:34;17.20;99.90
23156;DHT22;11746;50.876;4.246;2022-08-21T06:28:59;17.10;99.90
23156;DHT22;11746;50.876;4.246;2022-08-21T06:31:27;17.10;99.90
23156;DHT22;11746;50.876;4.246;2022-08-21T06:33:53;17.10;99.90
23156;DHT22;11746;50.876;4.246;2022-08-21T06:36:20;17.20;99.90
23156;DHT22;11746;50.876;4.246;2022-08-21T06:38:46;17.30;99.90
23156;DHT22;11746;50.876;4.246;2022-08-21T06:41:17;17.50;99.90
23156;DHT22;11746;50.876;4.246;2022-08-21T06:43:43;17.60;99.90
23156;DHT22;11746;50.876;4.246;2022-08-21T06:46:09;17.50;99.90
23156;DHT22;11746;50.876;4.246;2022-08-21T06:48:37;17.50;99.90
23156;DHT22;11746;50.876;4.246;2022-08-21T06:51:04;17.60;99.90
23156;DHT22;11746;50.876;4.246;2022-08-21T06:53:31;17.70;99.90
23156;DHT22;11746;50.876;4.246;2022-08-21T06:55:56;17.70;99.90
23156;DHT22;11746;50.876;4.246;2022-08-21T06:58:25;17.80;99.90
23156;DHT22;11746;50.876;4.246;2022-08-21T07:00:51;17.90;99.90
23156;DHT22;11746;50.876;4.246;2022-08-21T07:03:26;17.90;99.90
23156;DHT22;11746;50.876;4.246;2022-08-21T07:05:55;18.00;99.90
23156;DHT22;11746;50.876;4.246;2022-08-21T07:08:22;18.10;99.90
23156;DHT22;11746;50.876;4.246;2022-08-21T07:10:51;18.30;99.90
23156;DHT22;11746;50.876;4.246;2022-08-21T07:13:19;18.40;99.90
23156;DHT22;11746;50.876;4.246;2022-08-21T07:15:47;18.60;99.90
23156;DHT22;11746;50.876;4.246;2022-08-21T07:18:14;18.70;99.90
23156;DHT22;11746;50.876;4.246;2022-08-21T07:20:43;18.80;99.90
23156;DHT22;11746;50.876;4.246;2022-08-21T07:23:12;18.80;99.90
23156;DHT22;11746;50.876;4.246;2022-08-21T07:25:43;18.80;99.90
23156;DHT22;11746;50.876;4.246;2022-08-21T07:28:08;18.90;99.90
23156;DHT22;11746;50.876;4.246;2022-08-21T07:30:34;19.00;99.90
23156;DHT22;11746;50.876;4.246;2022-08-21T07:33:00;19.00;99.90
23156;DHT22;11746;50.876;4.246;2022-08-21T07:35:28;19.10;99.90
23156;DHT22;11746;50.876;4.246;2022-08-21T07:37:56;19.10;99.90
23156;DHT22;11746;50.876;4.246;2022-08-21T07:40:24;19.00;99.90
23156;DHT22;11746;50.876;4.246;2022-08-21T07:42:56;19.10;99.90
23156;DHT22;11746;50.876;4.246;2022-08-21T07:45:24;19.20;99.90
23156;DHT22;11746;50.876;4.246;2022-08-21T07:47:52;19.30;99.90
23156;DHT22;11746;50.876;4.246;2022-08-21T07:50:21;19.40;99.90
23156;DHT22;11746;50.876;4.246;2022-08-21T07:52:52;19.40;99.90
23156;DHT22;11746;50.876;4.246;2022-08-21T07:55:22;19.40;99.90
23156;DHT22;11746;50.876;4.246;2022-08-21T07:57:48;19.40;99.90
23156;DHT22;11746;50.876;4.246;2022-08-21T08:00:20;19.30;99.90
23156;DHT22;11746;50.876;4.246;2022-08-21T08:02:49;19.40;99.90
23156;DHT22;11746;50.876;4.246;2022-08-21T08:05:16;19.40;99.90
23156;DHT22;11746;50.876;4.246;2022-08-21T08:07:44;19.40;99.90
23156;DHT22;11746;50.876;4.246;2022-08-21T08:10:10;19.40;99.90
23156;DHT22;11746;50.876;4.246;2022-08-21T08:12:40;19.30;99.90
23156;DHT22;11746;50.876;4.246;2022-08-21T08:15:09;19.40;99.90
23156;DHT22;11746;50.876;4.246;2022-08-21T08:17:35;19.50;99.90
23156;DHT22;11746;50.876;4.246;2022-08-21T08:20:07;19.60;99.90
23156;DHT22;11746;50.876;4.246;2022-08-21T08:22:40;19.70;99.90
23156;DHT22;11746;50.876;4.246;2022-08-21T08:25:07;19.80;99.90
23156;DHT22;11746;50.876;4.246;2022-08-21T08:27:33;19.90;99.90
23156;DHT22;11746;50.876;4.246;2022-08-21T08:30:00;20.00;99.90
23156;DHT22;11746;50.876;4.246;2022-08-21T08:32:25;20.00;99.90
23156;DHT22;11746;50.876;4.246;2022-08-21T08:34:54;20.00;99.90
23156;DHT22;11746;50.876;4.246;2022-08-21T08:37:20;20.10;99.90
23156;DHT22;11746;50.876;4.246;2022-08-21T08:39:48;20.30;99.90
23156;DHT22;11746;50.876;4.246;2022-08-21T08:42:27;20.40;99.90
23156;DHT22;11746;50.876;4.246;2022-08-21T08:45:01;20.40;99.90
23156;DHT22;11746;50.876;4.246;2022-08-21T08:47:30;20.50;99.90
23156;DHT22;11746;50.876;4.246;2022-08-21T08:52:47;20.60;99.90
23156;DHT22;11746;50.876;4.246;2022-08-21T08:55:23;20.70;99.90
23156;DHT22;11746;50.876;4.246;2022-08-21T08:57:55;20.70;99.90
23156;DHT22;11746;50.876;4.246;2022-08-21T09:00:23;20.60;99.90
23156;DHT22;11746;50.876;4.246;2022-08-21T09:02:52;20.70;99.90
23156;DHT22;11746;50.876;4.246;2022-08-21T09:05:26;20.80;99.90
23156;DHT22;11746;50.876;4.246;2022-08-21T09:08:24;20.70;99.90
23156;DHT22;11746;50.876;4.246;2022-08-21T09:11:04;20.70;99.90
23156;DHT22;11746;50.876;4.246;2022-08-21T09:21:41;21.20;99.90
23156;DHT22;11746;50.876;4.246;2022-08-21T09:29:22;21.60;99.90
23156;DHT22;11746;50.876;4.246;2022-08-21T09:31:49;21.60;99.90
23156;DHT22;11746;50.876;4.246;2022-08-21T09:34:28;21.40;99.90
23156;DHT22;11746;50.876;4.246;2022-08-21T09:37:14;21.50;99.90
23156;DHT22;11746;50.876;4.246;2022-08-21T09:39:43;21.70;99.90
23156;DHT22;11746;50.876;4.246;2022-08-21T09:42:10;21.60;99.90
23156;DHT22;11746;50.876;4.246;2022-08-21T09:44:39;21.40;99.90
23156;DHT22;11746;50.876;4.246;2022-08-21T09:47:11;21.30;99.90
23156;DHT22;11746;50.876;4.246;2022-08-21T09:49:42;21.40;99.90
23156;DHT22;11746;50.876;4.246;2022-08-21T09:52:22;21.50;99.90
23156;DHT22;11746;50.876;4.246;2022-08-21T09:54:52;21.50;99.90
23156;DHT22;11746;50.876;4.246;2022-08-21T09:57:30;21.50;99.90
23156;DHT22;11746;50.876;4.246;2022-08-21T10:00:29;21.30;99.90
23156;DHT22;11746;50.876;4.246;2022-08-21T10:03:19;21.20;99.90
23156;DHT22;11746;50.876;4.246;2022-08-21T10:06:02;21.20;99.90
23156;DHT22;11746;50.876;4.246;2022-08-21T10:08:33;21.40;99.90
23156;DHT22;11746;50.876;4.246;2022-08-21T10:11:10;21.60;99.90
23156;DHT22;11746;50.876;4.246;2022-08-21T10:17:07;22.10;99.90
23156;DHT22;11746;50.876;4.246;2022-08-21T10:22:32;22.10;99.90
23156;DHT22;11746;50.876;4.246;2022-08-21T10:25:37;22.20;99.90
23156;DHT22;11746;50.876;4.246;2022-08-21T10:30:48;21.80;99.90
23156;DHT22;11746;50.876;4.246;2022-08-21T10:33:24;21.70;99.90
23156;DHT22;11746;50.876;4.246;2022-08-21T10:36:19;21.80;99.90
23156;DHT22;11746;50.876;4.246;2022-08-21T10:39:03;21.90;99.90
23156;DHT22;11746;50.876;4.246;2022-08-21T10:47:32;22.60;99.90
23156;DHT22;11746;50.876;4.246;2022-08-21T10:50:33;22.60;99.90
23156;DHT22;11746;50.876;4.246;2022-08-21T10:58:43;22.50;99.90
23156;DHT22;11746;50.876;4.246;2022-08-21T11:01:19;22.70;99.90
23156;DHT22;11746;50.876;4.246;2022-08-21T11:03:58;22.80;99.90
23156;DHT22;11746;50.876;4.246;2022-08-21T11:06:31;22.90;99.90
23156;DHT22;11746;50.876;4.246;2022-08-21T11:09:03;22.90;99.90
23156;DHT22;11746;50.876;4.246;2022-08-21T11:11:44;23.00;99.90
23156;DHT22;11746;50.876;4.246;2022-08-21T11:14:38;22.90;99.90
23156;DHT22;11746;50.876;4.246;2022-08-21T11:17:13;23.20;99.90
23156;DHT22;11746;50.876;4.246;2022-08-21T11:20:05;23.10;99.90
23156;DHT22;11746;50.876;4.246;2022-08-21T11:22:41;23.00;99.90
23156;DHT22;11746;50.876;4.246;2022-08-21T11:25:26;23.10;99.90
23156;DHT22;11746;50.876;4.246;2022-08-21T11:28:16;23.30;99.90
23156;DHT22;11746;50.876;4.246;2022-08-21T11:30:58;23.50;99.90
23156;DHT22;11746;50.876;4.246;2022-08-21T11:40:11;23.60;99.90
23156;DHT22;11746;50.876;4.246;2022-08-21T11:50:43;23.90;99.90
23156;DHT22;11746;50.876;4.246;2022-08-21T11:55:52;23.80;99.90
23156;DHT22;11746;50.876;4.246;2022-08-21T11:58:48;23.80;99.90
23156;DHT22;11746;50.876;4.246;2022-08-21T12:01:31;23.80;99.90
23156;DHT22;11746;50.876;4.246;2022-08-21T12:06:37;24.00;99.90
23156;DHT22;11746;50.876;4.246;2022-08-21T12:09:09;24.00;99.90
23156;DHT22;11746;50.876;4.246;2022-08-21T12:12:11;23.80;99.90
23156;DHT22;11746;50.876;4.246;2022-08-21T12:14:47;24.00;99.60
23156;DHT22;11746;50.876;4.246;2022-08-21T12:17:23;23.90;99.30
23156;DHT22;11746;50.876;4.246;2022-08-21T12:20:32;24.00;99.70
23156;DHT22;11746;50.876;4.246;2022-08-21T12:22:53;24.00;99.10
23156;DHT22;11746;50.876;4.246;2022-08-21T12:25:20;23.80;99.70
23156;DHT22;11746;50.876;4.246;2022-08-21T12:27:51;23.60;99.90
23156;DHT22;11746;50.876;4.246;2022-08-21T12:33:02;23.80;99.90
23156;DHT22;11746;50.876;4.246;2022-08-21T12:38:15;24.00;99.80
23156;DHT22;11746;50.876;4.246;2022-08-21T12:41:21;23.80;98.90
23156;DHT22;11746;50.876;4.246;2022-08-21T12:44:20;23.60;99.60
23156;DHT22;11746;50.876;4.246;2022-08-21T12:46:57;23.50;99.90
23156;DHT22;11746;50.876;4.246;2022-08-21T12:49:33;23.40;99.90
23156;DHT22;11746;50.876;4.246;2022-08-21T12:54:39;23.40;99.90
23156;DHT22;11746;50.876;4.246;2022-08-21T12:57:06;23.70;99.90
23156;DHT22;11746;50.876;4.246;2022-08-21T12:59:37;23.60;99.60
23156;DHT22;11746;50.876;4.246;2022-08-21T13:02:15;23.80;99.70
23156;DHT22;11746;50.876;4.246;2022-08-21T13:04:42;23.90;98.70
23156;DHT22;11746;50.876;4.246;2022-08-21T13:07:12;23.70;98.90
23156;DHT22;11746;50.876;4.246;2022-08-21T13:09:52;23.80;99.40
23156;DHT22;11746;50.876;4.246;2022-08-21T13:12:20;23.90;99.10
23156;DHT22;11746;50.876;4.246;2022-08-21T13:14:48;24.00;98.60
23156;DHT22;11746;50.876;4.246;2022-08-21T13:17:19;23.90;98.30
23156;DHT22;11746;50.876;4.246;2022-08-21T13:19:57;23.90;98.30
23156;DHT22;11746;50.876;4.246;2022-08-21T13:22:23;24.10;98.20
23156;DHT22;11746;50.876;4.246;2022-08-21T13:24:51;24.10;98.20
23156;DHT22;11746;50.876;4.246;2022-08-21T13:27:24;24.10;98.10
23156;DHT22;11746;50.876;4.246;2022-08-21T13:32:36;24.10;97.30
23156;DHT22;11746;50.876;4.246;2022-08-21T13:35:24;24.40;97.20
23156;DHT22;11746;50.876;4.246;2022-08-21T13:37:52;24.80;97.20
23156;DHT22;11746;50.876;4.246;2022-08-21T13:40:32;25.00;96.00
23156;DHT22;11746;50.876;4.246;2022-08-21T13:43:03;25.00;95.60
23156;DHT22;11746;50.876;4.246;2022-08-21T13:45:32;25.10;95.50
23156;DHT22;11746;50.876;4.246;2022-08-21T13:48:00;25.20;94.50
23156;DHT22;11746;50.876;4.246;2022-08-21T13:50:29;25.30;95.00
23156;DHT22;11746;50.876;4.246;2022-08-21T13:53:02;25.80;94.60
23156;DHT22;11746;50.876;4.246;2022-08-21T13:55:41;26.10;94.30
23156;DHT22;11746;50.876;4.246;2022-08-21T13:58:11;26.20;93.90
23156;DHT22;11746;50.876;4.246;2022-08-21T14:00:51;26.40;93.40
23156;DHT22;11746;50.876;4.246;2022-08-21T14:05:52;25.70;93.70
23156;DHT22;11746;50.876;4.246;2022-08-21T14:10:54;24.90;94.40
23156;DHT22;11746;50.876;4.246;2022-08-21T14:16:28;24.80;94.90
23156;DHT22;11746;50.876;4.246;2022-08-21T14:21:34;24.90;94.70
23156;DHT22;11746;50.876;4.246;2022-08-21T14:24:10;25.10;94.70
23156;DHT22;11746;50.876;4.246;2022-08-21T14:26:44;25.10;94.20
23156;DHT22;11746;50.876;4.246;2022-08-21T14:29:17;25.30;94.30
23156;DHT22;11746;50.876;4.246;2022-08-21T14:31:54;25.40;93.90
23156;DHT22;11746;50.876;4.246;2022-08-21T14:34:21;25.60;93.60
23156;DHT22;11746;50.876;4.246;2022-08-21T14:36:50;25.40;93.40
23156;DHT22;11746;50.876;4.246;2022-08-21T14:39:16;25.20;93.60
23156;DHT22;11746;50.876;4.246;2022-08-21T14:41:45;25.10;93.60
23156;DHT22;11746;50.876;4.246;2022-08-21T14:44:14;25.10;93.70
23156;DHT22;11746;50.876;4.246;2022-08-21T14:46:46;25.20;93.70
23156;DHT22;11746;50.876;4.246;2022-08-21T14:49:12;25.20;93.40
23156;DHT22;11746;50.876;4.246;2022-08-21T14:51:38;25.40;93.30
23156;DHT22;11746;50.876;4.246;2022-08-21T14:54:09;25.30;92.30
23156;DHT22;11746;50.876;4.246;2022-08-21T14:56:37;25.20;93.00
23156;DHT22;11746;50.876;4.246;2022-08-21T14:59:08;25.20;92.90
23156;DHT22;11746;50.876;4.246;2022-08-21T15:01:38;25.30;92.90
23156;DHT22;11746;50.876;4.246;2022-08-21T15:04:04;25.20;92.70
23156;DHT22;11746;50.876;4.246;2022-08-21T15:06:32;25.20;92.60
23156;DHT22;11746;50.876;4.246;2022-08-21T15:09:01;24.90;93.00
23156;DHT22;11746;50.876;4.246;2022-08-21T15:11:33;25.00;93.10
23156;DHT22;11746;50.876;4.246;2022-08-21T15:14:01;24.90;93.00
23156;DHT22;11746;50.876;4.246;2022-08-21T15:16:28;24.90;92.80
23156;DHT22;11746;50.876;4.246;2022-08-21T15:18:54;24.80;92.80
23156;DHT22;11746;50.876;4.246;2022-08-21T15:21:22;24.80;93.20
23156;DHT22;11746;50.876;4.246;2022-08-21T15:23:48;24.60;93.10
23156;DHT22;11746;50.876;4.246;2022-08-21T15:26:16;24.80;92.60
23156;DHT22;11746;50.876;4.246;2022-08-21T15:28:44;24.70;92.80
23156;DHT22;11746;50.876;4.246;2022-08-21T15:31:12;24.80;93.30
23156;DHT22;11746;50.876;4.246;2022-08-21T15:33:38;24.60;93.40
23156;DHT22;11746;50.876;4.246;2022-08-21T15:36:04;24.50;93.40
23156;DHT22;11746;50.876;4.246;2022-08-21T15:38:33;24.40;93.50
23156;DHT22;11746;50.876;4.246;2022-08-21T15:40:58;24.40;93.70
23156;DHT22;11746;50.876;4.246;2022-08-21T15:43:30;24.50;94.00
23156;DHT22;11746;50.876;4.246;2022-08-21T15:46:03;24.50;93.80
23156;DHT22;11746;50.876;4.246;2022-08-21T15:48:31;24.70;93.50
23156;DHT22;11746;50.876;4.246;2022-08-21T15:50:57;24.70;92.90
23156;DHT22;11746;50.876;4.246;2022-08-21T15:53:23;24.80;93.30
23156;DHT22;11746;50.876;4.246;2022-08-21T15:55:49;24.70;93.80
23156;DHT22;11746;50.876;4.246;2022-08-21T15:58:15;24.70;93.60
23156;DHT22;11746;50.876;4.246;2022-08-21T16:00:42;24.90;93.50
23156;DHT22;11746;50.876;4.246;2022-08-21T16:03:11;24.80;93.10
23156;DHT22;11746;50.876;4.246;2022-08-21T16:05:41;24.70;93.20
23156;DHT22;11746;50.876;4.246;2022-08-21T16:08:10;24.70;93.40
23156;DHT22;11746;50.876;4.246;2022-08-21T16:10:37;24.90;93.40
23156;DHT22;11746;50.876;4.246;2022-08-21T16:13:10;24.90;93.00
23156;DHT22;11746;50.876;4.246;2022-08-21T16:15:41;24.90;92.50
23156;DHT22;11746;50.876;4.246;2022-08-21T16:18:07;25.00;93.00
23156;DHT22;11746;50.876;4.246;2022-08-21T16:20:34;25.10;92.70
23156;DHT22;11746;50.876;4.246;2022-08-21T16:23:00;25.20;92.80
23156;DHT22;11746;50.876;4.246;2022-08-21T16:25:28;25.30;92.40
23156;DHT22;11746;50.876;4.246;2022-08-21T16:27:58;25.10;93.20
23156;DHT22;11746;50.876;4.246;2022-08-21T16:30:28;25.10;92.50
23156;DHT22;11746;50.876;4.246;2022-08-21T16:32:54;25.20;92.40
23156;DHT22;11746;50.876;4.246;2022-08-21T16:35:23;25.30;92.20
23156;DHT22;11746;50.876;4.246;2022-08-21T16:37:56;24.90;92.40
23156;DHT22;11746;50.876;4.246;2022-08-21T16:40:22;24.90;92.70
23156;DHT22;11746;50.876;4.246;2022-08-21T16:42:48;24.70;92.60
23156;DHT22;11746;50.876;4.246;2022-08-21T16:45:17;24.70;92.70
23156;DHT22;11746;50.876;4.246;2022-08-21T16:47:46;24.40;92.50
23156;DHT22;11746;50.876;4.246;2022-08-21T16:50:18;24.50;92.90
23156;DHT22;11746;50.876;4.246;2022-08-21T16:52:44;24.50;93.20
23156;DHT22;11746;50.876;4.246;2022-08-21T16:55:10;24.50;93.30
23156;DHT22;11746;50.876;4.246;2022-08-21T16:57:38;24.30;93.30
23156;DHT22;11746;50.876;4.246;2022-08-21T17:00:06;24.10;93.40
23156;DHT22;11746;50.876;4.246;2022-08-21T17:02:44;24.10;93.40
23156;DHT22;11746;50.876;4.246;2022-08-21T17:05:13;24.20;93.70
23156;DHT22;11746;50.876;4.246;2022-08-21T17:07:40;24.20;93.50
23156;DHT22;11746;50.876;4.246;2022-08-21T17:10:07;24.10;93.60